sensor_id;sensor_type;location;lat;lon;timestamp;P1;durP1;ratioP1;P2;durP2;ratioP2
32080;SDS011;18593;51.426;7.030;2022-10-16T00:00:39;7.32;;;3.17;;
32080;SDS011;18593;51.426;7.030;2022-10-16T00:03:07;10.93;;;2.90;;
32080;SDS011;18593;51.426;7.030;2022-10-16T00:05:38;7.72;;;2.90;;
32080;SDS011;18593;51.426;7.030;2022-10-16T00:08:06;5.85;;;3.40;;
32080;SDS011;18593;51.426;7.030;2022-10-16T00:10:34;12.65;;;2.70;;
32080;SDS011;18593;51.426;7.030;2022-10-16T00:13:02;6.07;;;2.78;;
32080;SDS011;18593;51.426;7.030;2022-10-16T00:15:29;7.47;;;3.17;;
32080;SDS011;18593;51.426;7.030;2022-10-16T00:17:56;7.60;;;3.20;;
32080;SDS011;18593;51.426;7.030;2022-10-16T00:20:23;6.60;;;2.67;;
32080;SDS011;18593;51.426;7.030;2022-10-16T00:22:49;9.85;;;2.88;;
32080;SDS011;18593;51.426;7.030;2022-10-16T00:25:16;4.72;;;2.40;;
32080;SDS011;18593;51.426;7.030;2022-10-16T00:27:45;5.72;;;2.50;;
32080;SDS011;18593;51.426;7.030;2022-10-16T00:30:12;10.30;;;2.65;;
32080;SDS011;18593;51.426;7.030;2022-10-16T00:32:38;8.75;;;2.80;;
32080;SDS011;18593;51.426;7.030;2022-10-16T00:35:05;9.65;;;2.75;;
32080;SDS011;18593;51.426;7.030;2022-10-16T00:37:33;9.73;;;2.70;;
32080;SDS011;18593;51.426;7.030;2022-10-16T00:39:59;5.35;;;2.50;;
32080;SDS011;18593;51.426;7.030;2022-10-16T00:42:26;10.50;;;2.90;;
32080;SDS011;18593;51.426;7.030;2022-10-16T00:44:56;7.95;;;2.72;;
32080;SDS011;18593;51.426;7.030;2022-10-16T00:47:26;6.85;;;2.40;;
32080;SDS011;18593;51.426;7.030;2022-10-16T00:49:56;6.72;;;2.30;;
32080;SDS011;18593;51.426;7.030;2022-10-16T00:52:26;6.57;;;2.20;;
32080;SDS011;18593;51.426;7.030;2022-10-16T00:54:53;7.55;;;2.60;;
32080;SDS011;18593;51.426;7.030;2022-10-16T00:57:20;8.27;;;2.28;;
32080;SDS011;18593;51.426;7.030;2022-10-16T00:59:47;4.22;;;2.05;;
32080;SDS011;18593;51.426;7.030;2022-10-16T01:02:16;5.15;;;2.28;;
32080;SDS011;18593;51.426;7.030;2022-10-16T01:04:44;9.25;;;2.58;;
32080;SDS011;18593;51.426;7.030;2022-10-16T01:07:13;4.72;;;2.05;;
32080;SDS011;18593;51.426;7.030;2022-10-16T01:09:51;6.07;;;2.22;;
32080;SDS011;18593;51.426;7.030;2022-10-16T01:12:26;6.05;;;2.28;;
32080;SDS011;18593;51.426;7.030;2022-10-16T01:15:02;8.38;;;2.40;;
32080;SDS011;18593;51.426;7.030;2022-10-16T01:17:37;7.00;;;2.20;;
32080;SDS011;18593;51.426;7.030;2022-10-16T01:20:10;6.57;;;2.05;;
32080;SDS011;18593;51.426;7.030;2022-10-16T01:22:43;8.15;;;2.40;;
32080;SDS011;18593;51.426;7.030;2022-10-16T01:25:25;4.75;;;2.10;;
32080;SDS011;18593;51.426;7.030;2022-10-16T01:27:58;6.15;;;2.10;;
32080;SDS011;18593;51.426;7.030;2022-10-16T01:30:27;7.25;;;2.80;;
32080;SDS011;18593;51.426;7.030;2022-10-16T01:32:59;6.90;;;2.40;;
32080;SDS011;18593;51.426;7.030;2022-10-16T01:35:29;6.03;;;2.40;;
32080;SDS011;18593;51.426;7.030;2022-10-16T01:37:59;5.30;;;2.10;;
32080;SDS011;18593;51.426;7.030;2022-10-16T01:40:28;5.65;;;2.33;;
32080;SDS011;18593;51.426;7.030;2022-10-16T01:42:59;6.72;;;2.40;;
32080;SDS011;18593;51.426;7.030;2022-10-16T01:45:27;5.53;;;2.20;;
32080;SDS011;18593;51.426;7.030;2022-10-16T01:47:55;7.43;;;2.35;;
32080;SDS011;18593;51.426;7.030;2022-10-16T01:50:22;6.63;;;2.25;;
32080;SDS011;18593;51.426;7.030;2022-10-16T01:52:51;6.57;;;1.98;;
32080;SDS011;18593;51.426;7.030;2022-10-16T01:55:20;6.47;;;2.13;;
32080;SDS011;18593;51.426;7.030;2022-10-16T01:57:51;6.25;;;2.53;;
32080;SDS011;18593;51.426;7.030;2022-10-16T02:00:20;7.40;;;2.35;;
32080;SDS011;18593;51.426;7.030;2022-10-16T02:02:49;6.93;;;2.20;;
32080;SDS011;18593;51.426;7.030;2022-10-16T02:05:19;5.72;;;2.40;;
32080;SDS011;18593;51.426;7.030;2022-10-16T02:07:48;4.80;;;2.28;;
32080;SDS011;18593;51.426;7.030;2022-10-16T02:10:15;5.10;;;2.30;;
32080;SDS011;18593;51.426;7.030;2022-10-16T02:12:43;5.40;;;2.50;;
32080;SDS011;18593;51.426;7.030;2022-10-16T02:15:13;5.55;;;2.15;;
32080;SDS011;18593;51.426;7.030;2022-10-16T02:17:41;7.82;;;1.92;;
32080;SDS011;18593;51.426;7.030;2022-10-16T02:20:08;6.20;;;2.33;;
32080;SDS011;18593;51.426;7.030;2022-10-16T02:22:38;16.23;;;2.72;;
32080;SDS011;18593;51.426;7.030;2022-10-16T02:25:08;4.35;;;1.83;;
32080;SDS011;18593;51.426;7.030;2022-10-16T02:27:38;5.50;;;2.40;;
32080;SDS011;18593;51.426;7.030;2022-10-16T02:30:08;6.53;;;2.47;;
32080;SDS011;18593;51.426;7.030;2022-10-16T02:32:40;4.43;;;2.10;;
32080;SDS011;18593;51.426;7.030;2022-10-16T02:35:10;5.85;;;1.90;;
32080;SDS011;18593;51.426;7.030;2022-10-16T02:37:37;4.57;;;2.40;;
32080;SDS011;18593;51.426;7.030;2022-10-16T02:40:05;5.05;;;2.20;;
32080;SDS011;18593;51.426;7.030;2022-10-16T02:42:33;4.43;;;2.20;;
32080;SDS011;18593;51.426;7.030;2022-10-16T02:45:01;4.82;;;2.22;;
32080;SDS011;18593;51.426;7.030;2022-10-16T02:47:28;8.27;;;2.10;;
32080;SDS011;18593;51.426;7.030;2022-10-16T02:49:56;7.10;;;2.30;;
32080;SDS011;18593;51.426;7.030;2022-10-16T02:52:23;7.43;;;2.35;;
32080;SDS011;18593;51.426;7.030;2022-10-16T02:54:50;4.68;;;2.65;;
32080;SDS011;18593;51.426;7.030;2022-10-16T02:57:17;6.70;;;2.13;;
32080;SDS011;18593;51.426;7.030;2022-10-16T02:59:44;5.05;;;2.40;;
32080;SDS011;18593;51.426;7.030;2022-10-16T03:02:12;4.68;;;2.00;;
32080;SDS011;18593;51.426;7.030;2022-10-16T03:04:39;4.57;;;2.10;;
32080;SDS011;18593;51.426;7.030;2022-10-16T03:07:07;5.43;;;2.42;;
32080;SDS011;18593;51.426;7.030;2022-10-16T03:09:34;5.43;;;1.80;;
32080;SDS011;18593;51.426;7.030;2022-10-16T03:12:00;6.18;;;2.00;;
32080;SDS011;18593;51.426;7.030;2022-10-16T03:14:27;5.00;;;2.17;;
32080;SDS011;18593;51.426;7.030;2022-10-16T03:16:57;3.70;;;2.10;;
32080;SDS011;18593;51.426;7.030;2022-10-16T03:19:23;5.20;;;2.10;;
32080;SDS011;18593;51.426;7.030;2022-10-16T03:21:50;3.75;;;1.80;;
32080;SDS011;18593;51.426;7.030;2022-10-16T03:24:18;6.60;;;2.10;;
32080;SDS011;18593;51.426;7.030;2022-10-16T03:26:45;5.60;;;2.00;;
32080;SDS011;18593;51.426;7.030;2022-10-16T03:29:12;3.80;;;2.03;;
32080;SDS011;18593;51.426;7.030;2022-10-16T03:31:39;5.75;;;1.90;;
32080;SDS011;18593;51.426;7.030;2022-10-16T03:34:06;3.83;;;1.90;;
32080;SDS011;18593;51.426;7.030;2022-10-16T03:36:33;4.00;;;1.80;;
32080;SDS011;18593;51.426;7.030;2022-10-16T03:39:00;6.65;;;1.80;;
32080;SDS011;18593;51.426;7.030;2022-10-16T03:41:28;5.57;;;2.00;;
32080;SDS011;18593;51.426;7.030;2022-10-16T03:43:55;3.28;;;1.67;;
32080;SDS011;18593;51.426;7.030;2022-10-16T03:46:22;4.38;;;1.92;;
32080;SDS011;18593;51.426;7.030;2022-10-16T03:48:49;8.90;;;2.25;;
32080;SDS011;18593;51.426;7.030;2022-10-16T03:51:16;4.43;;;1.80;;
32080;SDS011;18593;51.426;7.030;2022-10-16T03:53:43;4.43;;;2.17;;
32080;SDS011;18593;51.426;7.030;2022-10-16T03:56:10;5.68;;;2.10;;
32080;SDS011;18593;51.426;7.030;2022-10-16T03:58:38;5.03;;;1.80;;
32080;SDS011;18593;51.426;7.030;2022-10-16T04:01:05;4.25;;;1.90;;
32080;SDS011;18593;51.426;7.030;2022-10-16T04:03:32;3.72;;;1.90;;
32080;SDS011;18593;51.426;7.030;2022-10-16T04:05:59;5.28;;;1.88;;
32080;SDS011;18593;51.426;7.030;2022-10-16T04:08:26;4.97;;;1.90;;
32080;SDS011;18593;51.426;7.030;2022-10-16T04:10:53;5.78;;;1.98;;
32080;SDS011;18593;51.426;7.030;2022-10-16T04:13:19;3.85;;;2.00;;
32080;SDS011;18593;51.426;7.030;2022-10-16T04:15:48;3.75;;;1.85;;
32080;SDS011;18593;51.426;7.030;2022-10-16T04:18:15;4.65;;;1.63;;
32080;SDS011;18593;51.426;7.030;2022-10-16T04:20:41;3.58;;;2.08;;
32080;SDS011;18593;51.426;7.030;2022-10-16T04:23:08;6.05;;;1.90;;
32080;SDS011;18593;51.426;7.030;2022-10-16T04:25:35;7.50;;;2.05;;
32080;SDS011;18593;51.426;7.030;2022-10-16T04:28:02;6.97;;;2.03;;
32080;SDS011;18593;51.426;7.030;2022-10-16T04:30:29;7.68;;;2.20;;
32080;SDS011;18593;51.426;7.030;2022-10-16T04:32:57;6.63;;;2.08;;
32080;SDS011;18593;51.426;7.030;2022-10-16T04:35:24;7.55;;;2.10;;
32080;SDS011;18593;51.426;7.030;2022-10-16T04:37:51;3.20;;;1.88;;
32080;SDS011;18593;51.426;7.030;2022-10-16T04:40:18;6.10;;;1.85;;
32080;SDS011;18593;51.426;7.030;2022-10-16T04:42:45;6.45;;;1.98;;
32080;SDS011;18593;51.426;7.030;2022-10-16T04:45:11;3.88;;;1.75;;
32080;SDS011;18593;51.426;7.030;2022-10-16T04:47:38;4.93;;;2.22;;
32080;SDS011;18593;51.426;7.030;2022-10-16T04:50:07;7.93;;;2.38;;
32080;SDS011;18593;51.426;7.030;2022-10-16T04:52:34;7.03;;;1.98;;
32080;SDS011;18593;51.426;7.030;2022-10-16T04:55:01;5.65;;;2.10;;
32080;SDS011;18593;51.426;7.030;2022-10-16T04:57:28;4.40;;;2.08;;
32080;SDS011;18593;51.426;7.030;2022-10-16T04:59:55;4.18;;;1.95;;
32080;SDS011;18593;51.426;7.030;2022-10-16T05:02:22;6.07;;;2.30;;
32080;SDS011;18593;51.426;7.030;2022-10-16T05:04:49;5.88;;;2.20;;
32080;SDS011;18593;51.426;7.030;2022-10-16T05:07:17;5.97;;;1.90;;
32080;SDS011;18593;51.426;7.030;2022-10-16T05:09:44;3.95;;;1.90;;
32080;SDS011;18593;51.426;7.030;2022-10-16T05:12:11;5.20;;;1.60;;
32080;SDS011;18593;51.426;7.030;2022-10-16T05:14:38;5.50;;;2.10;;
32080;SDS011;18593;51.426;7.030;2022-10-16T05:17:05;3.97;;;1.80;;
32080;SDS011;18593;51.426;7.030;2022-10-16T05:19:31;5.47;;;1.90;;
32080;SDS011;18593;51.426;7.030;2022-10-16T05:21:58;5.95;;;2.08;;
32080;SDS011;18593;51.426;7.030;2022-10-16T05:24:27;6.43;;;2.58;;
32080;SDS011;18593;51.426;7.030;2022-10-16T05:26:54;3.20;;;1.63;;
32080;SDS011;18593;51.426;7.030;2022-10-16T05:29:21;5.35;;;2.35;;
32080;SDS011;18593;51.426;7.030;2022-10-16T05:31:49;5.35;;;1.77;;
32080;SDS011;18593;51.426;7.030;2022-10-16T05:34:17;6.47;;;1.92;;
32080;SDS011;18593;51.426;7.030;2022-10-16T05:36:44;6.80;;;2.20;;
32080;SDS011;18593;51.426;7.030;2022-10-16T05:39:11;5.03;;;1.85;;
32080;SDS011;18593;51.426;7.030;2022-10-16T05:41:41;4.28;;;1.90;;
32080;SDS011;18593;51.426;7.030;2022-10-16T05:44:08;6.93;;;2.30;;
32080;SDS011;18593;51.426;7.030;2022-10-16T05:46:35;6.85;;;1.80;;
32080;SDS011;18593;51.426;7.030;2022-10-16T05:49:02;3.58;;;1.58;;
32080;SDS011;18593;51.426;7.030;2022-10-16T05:51:29;3.47;;;2.00;;
32080;SDS011;18593;51.426;7.030;2022-10-16T05:53:56;4.38;;;1.80;;
32080;SDS011;18593;51.426;7.030;2022-10-16T05:56:23;5.10;;;2.10;;
32080;SDS011;18593;51.426;7.030;2022-10-16T05:58:51;7.07;;;2.00;;
32080;SDS011;18593;51.426;7.030;2022-10-16T06:01:19;4.75;;;2.25;;
32080;SDS011;18593;51.426;7.030;2022-10-16T06:03:49;5.78;;;1.95;;
32080;SDS011;18593;51.426;7.030;2022-10-16T06:06:16;5.43;;;2.20;;
32080;SDS011;18593;51.426;7.030;2022-10-16T06:08:44;4.85;;;1.90;;
32080;SDS011;18593;51.426;7.030;2022-10-16T06:11:13;4.22;;;2.10;;
32080;SDS011;18593;51.426;7.030;2022-10-16T06:13:41;4.93;;;1.90;;
32080;SDS011;18593;51.426;7.030;2022-10-16T06:16:09;6.07;;;2.03;;
32080;SDS011;18593;51.426;7.030;2022-10-16T06:18:36;6.63;;;1.95;;
32080;SDS011;18593;51.426;7.030;2022-10-16T06:21:06;5.38;;;1.60;;
32080;SDS011;18593;51.426;7.030;2022-10-16T06:23:34;7.82;;;1.77;;
32080;SDS011;18593;51.426;7.030;2022-10-16T06:26:04;9.32;;;2.08;;
32080;SDS011;18593;51.426;7.030;2022-10-16T06:28:32;8.63;;;2.05;;
32080;SDS011;18593;51.426;7.030;2022-10-16T06:30:59;4.25;;;2.03;;
32080;SDS011;18593;51.426;7.030;2022-10-16T06:33:27;3.55;;;2.10;;
32080;SDS011;18593;51.426;7.030;2022-10-16T06:35:59;5.78;;;2.00;;
32080;SDS011;18593;51.426;7.030;2022-10-16T06:38:27;3.58;;;1.80;;
32080;SDS011;18593;51.426;7.030;2022-10-16T06:40:54;5.57;;;2.17;;
32080;SDS011;18593;51.426;7.030;2022-10-16T06:43:21;4.78;;;2.20;;
32080;SDS011;18593;51.426;7.030;2022-10-16T06:45:50;4.28;;;2.03;;
32080;SDS011;18593;51.426;7.030;2022-10-16T06:48:17;6.05;;;2.35;;
32080;SDS011;18593;51.426;7.030;2022-10-16T06:50:46;5.05;;;2.20;;
32080;SDS011;18593;51.426;7.030;2022-10-16T06:53:21;6.88;;;2.65;;
32080;SDS011;18593;51.426;7.030;2022-10-16T06:55:48;4.32;;;2.15;;
32080;SDS011;18593;51.426;7.030;2022-10-16T06:58:15;4.88;;;2.05;;
32080;SDS011;18593;51.426;7.030;2022-10-16T07:00:42;8.25;;;2.55;;
32080;SDS011;18593;51.426;7.030;2022-10-16T07:03:09;4.32;;;2.40;;
32080;SDS011;18593;51.426;7.030;2022-10-16T07:05:37;5.03;;;2.22;;
32080;SDS011;18593;51.426;7.030;2022-10-16T07:08:05;6.38;;;2.13;;
32080;SDS011;18593;51.426;7.030;2022-10-16T07:10:32;9.98;;;2.28;;
32080;SDS011;18593;51.426;7.030;2022-10-16T07:12:59;5.03;;;2.00;;
32080;SDS011;18593;51.426;7.030;2022-10-16T07:15:26;5.00;;;1.90;;
32080;SDS011;18593;51.426;7.030;2022-10-16T07:17:53;3.50;;;2.08;;
32080;SDS011;18593;51.426;7.030;2022-10-16T07:20:20;4.20;;;2.30;;
32080;SDS011;18593;51.426;7.030;2022-10-16T07:22:47;4.68;;;2.30;;
32080;SDS011;18593;51.426;7.030;2022-10-16T07:25:16;4.35;;;2.45;;
32080;SDS011;18593;51.426;7.030;2022-10-16T07:27:42;5.97;;;2.88;;
32080;SDS011;18593;51.426;7.030;2022-10-16T07:30:09;6.00;;;3.40;;
32080;SDS011;18593;51.426;7.030;2022-10-16T07:32:36;6.03;;;2.92;;
32080;SDS011;18593;51.426;7.030;2022-10-16T07:35:04;4.38;;;2.47;;
32080;SDS011;18593;51.426;7.030;2022-10-16T07:37:31;5.35;;;3.00;;
32080;SDS011;18593;51.426;7.030;2022-10-16T07:39:58;4.47;;;2.17;;
32080;SDS011;18593;51.426;7.030;2022-10-16T07:42:26;6.75;;;2.40;;
32080;SDS011;18593;51.426;7.030;2022-10-16T07:44:53;9.15;;;2.40;;
32080;SDS011;18593;51.426;7.030;2022-10-16T07:47:20;4.30;;;2.40;;
32080;SDS011;18593;51.426;7.030;2022-10-16T07:49:47;5.47;;;2.03;;
32080;SDS011;18593;51.426;7.030;2022-10-16T07:52:14;6.05;;;2.25;;
32080;SDS011;18593;51.426;7.030;2022-10-16T07:54:41;5.97;;;2.13;;
32080;SDS011;18593;51.426;7.030;2022-10-16T07:57:08;5.10;;;1.80;;
32080;SDS011;18593;51.426;7.030;2022-10-16T07:59:36;6.53;;;2.13;;
32080;SDS011;18593;51.426;7.030;2022-10-16T08:02:03;4.97;;;2.05;;
32080;SDS011;18593;51.426;7.030;2022-10-16T08:04:30;5.50;;;2.17;;
32080;SDS011;18593;51.426;7.030;2022-10-16T08:06:56;5.60;;;2.13;;
32080;SDS011;18593;51.426;7.030;2022-10-16T08:09:23;4.63;;;1.92;;
32080;SDS011;18593;51.426;7.030;2022-10-16T08:11:50;4.85;;;1.88;;
32080;SDS011;18593;51.426;7.030;2022-10-16T08:14:17;4.97;;;2.00;;
32080;SDS011;18593;51.426;7.030;2022-10-16T08:16:46;7.32;;;1.60;;
32080;SDS011;18593;51.426;7.030;2022-10-16T08:19:12;6.32;;;1.70;;
32080;SDS011;18593;51.426;7.030;2022-10-16T08:21:40;5.43;;;1.83;;
32080;SDS011;18593;51.426;7.030;2022-10-16T08:24:07;5.10;;;1.70;;
32080;SDS011;18593;51.426;7.030;2022-10-16T08:26:34;5.43;;;2.10;;
32080;SDS011;18593;51.426;7.030;2022-10-16T08:29:01;2.63;;;1.58;;
32080;SDS011;18593;51.426;7.030;2022-10-16T08:31:28;6.07;;;1.63;;
32080;SDS011;18593;51.426;7.030;2022-10-16T08:33:56;6.97;;;1.70;;
32080;SDS011;18593;51.426;7.030;2022-10-16T08:36:23;8.02;;;1.70;;
32080;SDS011;18593;51.426;7.030;2022-10-16T08:38:50;6.30;;;1.63;;
32080;SDS011;18593;51.426;7.030;2022-10-16T08:41:30;5.85;;;1.73;;
32080;SDS011;18593;51.426;7.030;2022-10-16T08:44:10;3.50;;;1.50;;
32080;SDS011;18593;51.426;7.030;2022-10-16T08:46:52;5.90;;;1.48;;
32080;SDS011;18593;51.426;7.030;2022-10-16T08:49:27;3.63;;;1.38;;
32080;SDS011;18593;51.426;7.030;2022-10-16T08:51:54;4.68;;;1.52;;
32080;SDS011;18593;51.426;7.030;2022-10-16T08:54:24;3.10;;;1.30;;
32080;SDS011;18593;51.426;7.030;2022-10-16T08:56:55;3.80;;;1.33;;
32080;SDS011;18593;51.426;7.030;2022-10-16T08:59:22;4.97;;;1.42;;
32080;SDS011;18593;51.426;7.030;2022-10-16T09:01:50;5.10;;;1.45;;
32080;SDS011;18593;51.426;7.030;2022-10-16T09:04:24;5.55;;;1.50;;
32080;SDS011;18593;51.426;7.030;2022-10-16T09:07:09;3.55;;;1.35;;
32080;SDS011;18593;51.426;7.030;2022-10-16T09:09:46;5.30;;;1.30;;
32080;SDS011;18593;51.426;7.030;2022-10-16T09:12:20;4.35;;;1.10;;
32080;SDS011;18593;51.426;7.030;2022-10-16T09:14:57;5.70;;;1.40;;
32080;SDS011;18593;51.426;7.030;2022-10-16T09:17:33;3.60;;;1.30;;
32080;SDS011;18593;51.426;7.030;2022-10-16T09:23:10;4.43;;;1.67;;
32080;SDS011;18593;51.426;7.030;2022-10-16T09:25:41;8.15;;;1.30;;
32080;SDS011;18593;51.426;7.030;2022-10-16T09:28:10;4.07;;;1.20;;
32080;SDS011;18593;51.426;7.030;2022-10-16T09:30:37;4.38;;;1.20;;
32080;SDS011;18593;51.426;7.030;2022-10-16T09:33:04;5.93;;;1.65;;
32080;SDS011;18593;51.426;7.030;2022-10-16T09:35:33;6.72;;;1.27;;
32080;SDS011;18593;51.426;7.030;2022-10-16T09:38:04;3.40;;;1.30;;
32080;SDS011;18593;51.426;7.030;2022-10-16T09:40:31;5.53;;;1.40;;
32080;SDS011;18593;51.426;7.030;2022-10-16T09:43:02;12.23;;;1.63;;
32080;SDS011;18593;51.426;7.030;2022-10-16T09:45:33;9.68;;;1.40;;
32080;SDS011;18593;51.426;7.030;2022-10-16T09:48:01;7.07;;;1.55;;
32080;SDS011;18593;51.426;7.030;2022-10-16T09:50:38;9.13;;;1.50;;
32080;SDS011;18593;51.426;7.030;2022-10-16T09:53:08;4.78;;;1.50;;
32080;SDS011;18593;51.426;7.030;2022-10-16T09:55:47;6.97;;;1.35;;
32080;SDS011;18593;51.426;7.030;2022-10-16T09:58:15;5.03;;;1.30;;
32080;SDS011;18593;51.426;7.030;2022-10-16T10:00:42;4.63;;;1.20;;
32080;SDS011;18593;51.426;7.030;2022-10-16T10:03:17;5.50;;;1.33;;
32080;SDS011;18593;51.426;7.030;2022-10-16T10:05:58;4.65;;;0.85;;
32080;SDS011;18593;51.426;7.030;2022-10-16T10:08:25;3.28;;;1.20;;
32080;SDS011;18593;51.426;7.030;2022-10-16T10:10:52;3.65;;;1.23;;
32080;SDS011;18593;51.426;7.030;2022-10-16T10:13:20;5.28;;;1.20;;
32080;SDS011;18593;51.426;7.030;2022-10-16T10:15:49;3.35;;;1.08;;
32080;SDS011;18593;51.426;7.030;2022-10-16T10:18:17;4.05;;;1.40;;
32080;SDS011;18593;51.426;7.030;2022-10-16T10:20:45;6.60;;;1.10;;
32080;SDS011;18593;51.426;7.030;2022-10-16T10:23:20;5.38;;;1.70;;
32080;SDS011;18593;51.426;7.030;2022-10-16T10:25:49;4.05;;;1.20;;
32080;SDS011;18593;51.426;7.030;2022-10-16T10:30:56;4.80;;;1.17;;
32080;SDS011;18593;51.426;7.030;2022-10-16T10:33:28;4.63;;;1.20;;
32080;SDS011;18593;51.426;7.030;2022-10-16T10:36:04;3.90;;;1.08;;
32080;SDS011;18593;51.426;7.030;2022-10-16T10:38:39;4.97;;;1.23;;
32080;SDS011;18593;51.426;7.030;2022-10-16T10:41:14;5.10;;;1.88;;
32080;SDS011;18593;51.426;7.030;2022-10-16T10:43:53;8.00;;;1.55;;
32080;SDS011;18593;51.426;7.030;2022-10-16T10:46:25;3.95;;;0.98;;
32080;SDS011;18593;51.426;7.030;2022-10-16T10:49:04;3.55;;;1.08;;
32080;SDS011;18593;51.426;7.030;2022-10-16T10:51:38;3.97;;;1.38;;
32080;SDS011;18593;51.426;7.030;2022-10-16T10:54:13;4.07;;;1.02;;
32080;SDS011;18593;51.426;7.030;2022-10-16T10:56:44;4.18;;;1.10;;
32080;SDS011;18593;51.426;7.030;2022-10-16T10:59:19;4.30;;;1.00;;
32080;SDS011;18593;51.426;7.030;2022-10-16T11:01:55;6.15;;;1.05;;
32080;SDS011;18593;51.426;7.030;2022-10-16T11:04:36;6.72;;;0.90;;
32080;SDS011;18593;51.426;7.030;2022-10-16T11:07:14;5.82;;;1.27;;
32080;SDS011;18593;51.426;7.030;2022-10-16T11:09:45;2.90;;;1.00;;
32080;SDS011;18593;51.426;7.030;2022-10-16T11:12:15;4.10;;;1.17;;
32080;SDS011;18593;51.426;7.030;2022-10-16T11:14:46;3.77;;;1.00;;
32080;SDS011;18593;51.426;7.030;2022-10-16T11:17:17;4.60;;;1.10;;
32080;SDS011;18593;51.426;7.030;2022-10-16T11:19:51;3.05;;;0.93;;
32080;SDS011;18593;51.426;7.030;2022-10-16T11:22:21;2.53;;;0.85;;
32080;SDS011;18593;51.426;7.030;2022-10-16T11:24:53;5.57;;;1.25;;
32080;SDS011;18593;51.426;7.030;2022-10-16T11:27:26;4.75;;;1.00;;
32080;SDS011;18593;51.426;7.030;2022-10-16T11:30:00;3.67;;;1.00;;
32080;SDS011;18593;51.426;7.030;2022-10-16T11:32:31;5.07;;;0.98;;
32080;SDS011;18593;51.426;7.030;2022-10-16T11:35:02;4.30;;;0.90;;
32080;SDS011;18593;51.426;7.030;2022-10-16T11:40:02;3.33;;;0.95;;
32080;SDS011;18593;51.426;7.030;2022-10-16T11:42:32;4.63;;;0.90;;
32080;SDS011;18593;51.426;7.030;2022-10-16T11:45:07;5.00;;;0.90;;
32080;SDS011;18593;51.426;7.030;2022-10-16T11:47:39;3.92;;;0.82;;
32080;SDS011;18593;51.426;7.030;2022-10-16T11:50:22;3.50;;;0.98;;
32080;SDS011;18593;51.426;7.030;2022-10-16T11:52:52;3.60;;;0.80;;
32080;SDS011;18593;51.426;7.030;2022-10-16T11:55:23;3.75;;;1.38;;
32080;SDS011;18593;51.426;7.030;2022-10-16T11:57:57;4.63;;;1.50;;
32080;SDS011;18593;51.426;7.030;2022-10-16T12:00:28;3.47;;;1.02;;
32080;SDS011;18593;51.426;7.030;2022-10-16T12:02:58;3.63;;;1.00;;
32080;SDS011;18593;51.426;7.030;2022-10-16T12:05:31;4.65;;;1.00;;
32080;SDS011;18593;51.426;7.030;2022-10-16T12:08:05;6.13;;;1.42;;
32080;SDS011;18593;51.426;7.030;2022-10-16T12:10:37;7.13;;;1.23;;
32080;SDS011;18593;51.426;7.030;2022-10-16T12:13:05;4.25;;;1.00;;
32080;SDS011;18593;51.426;7.030;2022-10-16T12:15:49;5.05;;;0.95;;
32080;SDS011;18593;51.426;7.030;2022-10-16T12:18:20;3.85;;;1.08;;
32080;SDS011;18593;51.426;7.030;2022-10-16T12:20:53;7.07;;;1.00;;
32080;SDS011;18593;51.426;7.030;2022-10-16T12:23:24;2.67;;;1.00;;
32080;SDS011;18593;51.426;7.030;2022-10-16T12:25:55;6.45;;;1.38;;
32080;SDS011;18593;51.426;7.030;2022-10-16T12:28:25;4.30;;;1.00;;
32080;SDS011;18593;51.426;7.030;2022-10-16T12:33:21;5.20;;;1.02;;
32080;SDS011;18593;51.426;7.030;2022-10-16T12:35:49;4.65;;;1.05;;
32080;SDS011;18593;51.426;7.030;2022-10-16T12:38:17;5.53;;;0.90;;
32080;SDS011;18593;51.426;7.030;2022-10-16T12:40:45;5.85;;;1.40;;
32080;SDS011;18593;51.426;7.030;2022-10-16T12:43:26;9.88;;;1.73;;
32080;SDS011;18593;51.426;7.030;2022-10-16T12:46:02;7.07;;;1.10;;
32080;SDS011;18593;51.426;7.030;2022-10-16T12:48:30;4.75;;;1.05;;
32080;SDS011;18593;51.426;7.030;2022-10-16T12:51:08;3.75;;;0.88;;
32080;SDS011;18593;51.426;7.030;2022-10-16T12:53:36;5.13;;;1.35;;
32080;SDS011;18593;51.426;7.030;2022-10-16T12:56:04;7.22;;;1.15;;
32080;SDS011;18593;51.426;7.030;2022-10-16T12:58:51;4.63;;;1.17;;
32080;SDS011;18593;51.426;7.030;2022-10-16T13:01:29;5.72;;;1.20;;
32080;SDS011;18593;51.426;7.030;2022-10-16T13:09:23;4.30;;;1.00;;
32080;SDS011;18593;51.426;7.030;2022-10-16T13:12:06;5.03;;;1.20;;
32080;SDS011;18593;51.426;7.030;2022-10-16T13:14:56;4.60;;;0.88;;
32080;SDS011;18593;51.426;7.030;2022-10-16T13:17:30;2.10;;;0.80;;
32080;SDS011;18593;51.426;7.030;2022-10-16T13:20:04;4.20;;;1.13;;
32080;SDS011;18593;51.426;7.030;2022-10-16T13:22:39;6.18;;;1.00;;
32080;SDS011;18593;51.426;7.030;2022-10-16T13:25:18;3.85;;;1.00;;
32080;SDS011;18593;51.426;7.030;2022-10-16T13:27:51;2.35;;;1.00;;
32080;SDS011;18593;51.426;7.030;2022-10-16T13:30:22;4.82;;;1.20;;
32080;SDS011;18593;51.426;7.030;2022-10-16T13:32:50;3.63;;;1.13;;
32080;SDS011;18593;51.426;7.030;2022-10-16T13:35:26;5.00;;;1.00;;
32080;SDS011;18593;51.426;7.030;2022-10-16T13:38:03;4.05;;;1.10;;
32080;SDS011;18593;51.426;7.030;2022-10-16T13:40:47;3.58;;;1.17;;
32080;SDS011;18593;51.426;7.030;2022-10-16T13:43:18;4.20;;;0.95;;
32080;SDS011;18593;51.426;7.030;2022-10-16T13:45:56;2.83;;;0.90;;
32080;SDS011;18593;51.426;7.030;2022-10-16T13:48:25;4.95;;;1.10;;
32080;SDS011;18593;51.426;7.030;2022-10-16T13:51:03;4.82;;;1.20;;
32080;SDS011;18593;51.426;7.030;2022-10-16T13:53:32;3.55;;;0.80;;
32080;SDS011;18593;51.426;7.030;2022-10-16T13:56:02;9.20;;;1.25;;
32080;SDS011;18593;51.426;7.030;2022-10-16T13:58:30;5.95;;;1.08;;
32080;SDS011;18593;51.426;7.030;2022-10-16T14:00:59;6.15;;;1.15;;
32080;SDS011;18593;51.426;7.030;2022-10-16T14:03:27;4.60;;;1.00;;
32080;SDS011;18593;51.426;7.030;2022-10-16T14:05:56;4.50;;;1.17;;
32080;SDS011;18593;51.426;7.030;2022-10-16T14:08:26;4.03;;;1.50;;
32080;SDS011;18593;51.426;7.030;2022-10-16T14:10:54;6.88;;;1.67;;
32080;SDS011;18593;51.426;7.030;2022-10-16T14:13:26;7.68;;;1.35;;
32080;SDS011;18593;51.426;7.030;2022-10-16T14:15:56;4.45;;;0.85;;
32080;SDS011;18593;51.426;7.030;2022-10-16T14:18:25;3.38;;;1.15;;
32080;SDS011;18593;51.426;7.030;2022-10-16T14:20:53;4.30;;;0.95;;
32080;SDS011;18593;51.426;7.030;2022-10-16T14:23:22;3.55;;;0.82;;
32080;SDS011;18593;51.426;7.030;2022-10-16T14:25:51;6.88;;;1.10;;
32080;SDS011;18593;51.426;7.030;2022-10-16T14:28:19;3.90;;;0.80;;
32080;SDS011;18593;51.426;7.030;2022-10-16T14:30:50;4.13;;;1.00;;
32080;SDS011;18593;51.426;7.030;2022-10-16T14:33:20;4.72;;;1.27;;
32080;SDS011;18593;51.426;7.030;2022-10-16T14:36:00;6.60;;;1.45;;
32080;SDS011;18593;51.426;7.030;2022-10-16T14:38:29;4.00;;;1.10;;
32080;SDS011;18593;51.426;7.030;2022-10-16T14:40:57;2.97;;;0.85;;
32080;SDS011;18593;51.426;7.030;2022-10-16T14:43:26;5.68;;;0.93;;
32080;SDS011;18593;51.426;7.030;2022-10-16T14:45:57;4.85;;;1.30;;
32080;SDS011;18593;51.426;7.030;2022-10-16T14:48:25;7.65;;;1.27;;
32080;SDS011;18593;51.426;7.030;2022-10-16T14:50:52;3.53;;;0.90;;
32080;SDS011;18593;51.426;7.030;2022-10-16T14:53:20;4.50;;;1.25;;
32080;SDS011;18593;51.426;7.030;2022-10-16T14:55:47;4.20;;;0.98;;
32080;SDS011;18593;51.426;7.030;2022-10-16T14:58:15;4.53;;;1.10;;
32080;SDS011;18593;51.426;7.030;2022-10-16T15:00:43;3.78;;;1.08;;
32080;SDS011;18593;51.426;7.030;2022-10-16T15:03:10;4.75;;;1.30;;
32080;SDS011;18593;51.426;7.030;2022-10-16T15:05:37;6.85;;;1.42;;
32080;SDS011;18593;51.426;7.030;2022-10-16T15:08:04;6.90;;;1.20;;
32080;SDS011;18593;51.426;7.030;2022-10-16T15:10:33;5.28;;;1.45;;
32080;SDS011;18593;51.426;7.030;2022-10-16T15:13:03;6.70;;;1.30;;
32080;SDS011;18593;51.426;7.030;2022-10-16T15:15:32;6.65;;;1.45;;
32080;SDS011;18593;51.426;7.030;2022-10-16T15:18:01;5.60;;;1.65;;